createdAt,value
2022-12-01T00:01:32.921Z,98978.00
2022-12-01T00:04:20.832Z,98978.00
2022-12-01T00:07:08.660Z,98976.00
2022-12-01T00:10:19.640Z,98981.00
2022-12-01T00:13:07.544Z,98983.00
2022-12-01T00:15:55.316Z,98980.00
2022-12-01T00:18:43.806Z,98987.00
2022-12-01T00:21:31.381Z,98979.00
2022-12-01T00:24:19.228Z,98978.00
2022-12-01T00:27:09.455Z,98977.00
2022-12-01T00:29:57.295Z,98973.00
2022-12-01T00:32:46.101Z,98975.00
2022-12-01T00:35:33.786Z,98978.00
2022-12-01T00:38:21.215Z,98979.00
2022-12-01T00:41:09.459Z,98974.00
2022-12-01T00:43:57.464Z,98983.00
2022-12-01T00:46:44.872Z,98982.00
2022-12-01T00:49:32.626Z,98985.00
2022-12-01T00:52:21.142Z,98987.00
2022-12-01T00:55:09.155Z,98985.00
2022-12-01T00:57:56.846Z,98987.00
2022-12-01T01:00:44.496Z,98996.00
2022-12-01T01:03:34.605Z,99005.00
2022-12-01T01:06:22.175Z,98998.00
2022-12-01T01:09:11.261Z,99000.00
2022-12-01T01:11:58.735Z,98998.00
2022-12-01T01:14:46.229Z,99009.00
2022-12-01T01:17:34.643Z,99000.00
2022-12-01T01:20:22.156Z,99005.00
2022-12-01T01:23:09.669Z,99003.00
2022-12-01T01:26:16.365Z,98998.00
2022-12-01T01:29:07.868Z,98995.00
2022-12-01T01:31:55.296Z,99004.00
2022-12-01T01:34:42.761Z,98991.00
2022-12-01T01:37:30.180Z,98994.00
2022-12-01T01:40:18.689Z,99001.00
2022-12-01T01:43:37.363Z,98994.00
2022-12-01T01:46:31.125Z,98993.00
2022-12-01T01:49:18.645Z,98996.00
2022-12-01T01:52:06.206Z,98997.00
2022-12-01T01:54:55.804Z,98995.00
2022-12-01T01:57:45.595Z,98991.00
2022-12-01T02:00:33.090Z,98988.00
2022-12-01T02:03:22.684Z,98988.00
2022-12-01T02:06:11.819Z,98989.00
2022-12-01T02:08:59.424Z,98992.00
2022-12-01T02:12:03.784Z,98990.00
2022-12-01T02:15:29.704Z,98989.00
2022-12-01T02:18:49.353Z,98991.00
2022-12-01T02:22:24.910Z,98990.00
2022-12-01T02:26:02.287Z,98986.00
2022-12-01T02:29:26.614Z,98983.00
2022-12-01T02:32:41.555Z,98979.00
2022-12-01T02:35:52.643Z,98988.00
2022-12-01T02:39:00.525Z,98992.00
2022-12-01T02:42:01.558Z,98986.00
2022-12-01T02:44:49.780Z,98982.00
2022-12-01T02:47:42.139Z,98980.00
2022-12-01T02:50:35.361Z,98976.00
2022-12-01T02:53:23.014Z,98971.00
2022-12-01T02:56:16.125Z,98969.00
2022-12-01T02:59:15.640Z,98977.00
2022-12-01T03:02:20.514Z,98968.00
2022-12-01T03:05:40.721Z,98968.00
2022-12-01T03:08:53.945Z,98968.00
2022-12-01T03:12:21.482Z,98972.00
2022-12-01T03:15:58.599Z,98974.00
2022-12-01T03:19:05.693Z,98965.00
2022-12-01T03:21:57.676Z,98974.00
2022-12-01T03:24:49.584Z,98966.00
2022-12-01T03:28:00.693Z,98963.00
2022-12-01T03:30:57.298Z,98970.00
2022-12-01T03:34:24.250Z,98962.00
2022-12-01T03:37:47.293Z,98960.00
2022-12-01T03:40:39.444Z,98958.00
2022-12-01T03:43:37.394Z,98961.00
2022-12-01T03:46:47.721Z,98951.00
2022-12-01T03:49:36.549Z,98951.00
2022-12-01T03:53:12.190Z,98954.00
2022-12-01T03:56:06.648Z,98952.00
2022-12-01T03:59:00.296Z,98957.00
2022-12-01T04:01:48.090Z,98957.00
2022-12-01T04:04:35.875Z,98953.00
2022-12-01T04:07:23.830Z,98957.00
2022-12-01T04:10:11.809Z,98954.00
2022-12-01T04:12:59.859Z,98958.00
2022-12-01T04:15:47.354Z,98961.00
2022-12-01T04:18:34.825Z,98959.00
2022-12-01T04:21:22.259Z,98966.00
2022-12-01T04:24:09.871Z,98962.00
2022-12-01T04:26:57.321Z,98968.00
2022-12-01T04:29:44.787Z,98970.00
2022-12-01T04:32:32.262Z,98967.00
2022-12-01T04:35:19.799Z,98968.00
2022-12-01T04:38:07.184Z,98965.00
2022-12-01T04:40:54.737Z,98963.00
2022-12-01T04:43:42.599Z,98969.00
2022-12-01T04:46:31.163Z,98971.00
2022-12-01T04:49:20.525Z,98978.00
2022-12-01T04:52:07.985Z,98974.00
2022-12-01T04:54:55.465Z,98968.00
2022-12-01T04:57:42.873Z,98978.00
2022-12-01T05:00:30.795Z,98975.00
2022-12-01T05:03:18.469Z,98973.00
2022-12-01T05:06:12.097Z,98979.00
2022-12-01T05:09:02.053Z,98982.00
2022-12-01T05:11:49.459Z,98979.00
2022-12-01T05:14:36.959Z,98983.00
2022-12-01T05:17:24.385Z,98979.00
2022-12-01T05:20:40.704Z,98981.00
2022-12-01T05:23:32.645Z,98983.00
2022-12-01T05:26:20.090Z,98978.00
2022-12-01T05:29:07.981Z,98981.00
2022-12-01T05:31:55.468Z,98979.00
2022-12-01T05:34:43.079Z,98973.00
2022-12-01T05:37:33.452Z,98973.00
2022-12-01T05:40:21.026Z,98963.00
2022-12-01T05:43:08.898Z,98962.00
2022-12-01T05:45:57.875Z,98972.00
2022-12-01T05:48:45.404Z,98968.00
2022-12-01T05:51:32.844Z,98968.00
2022-12-01T05:54:20.283Z,98973.00
2022-12-01T05:57:07.769Z,98969.00
2022-12-01T05:59:55.252Z,98973.00
2022-12-01T06:02:43.023Z,98978.00
2022-12-01T06:05:30.729Z,98976.00
2022-12-01T06:08:18.406Z,98968.00
2022-12-01T06:11:06.526Z,98977.00
2022-12-01T06:13:53.977Z,98981.00
2022-12-01T06:16:41.439Z,98974.00
2022-12-01T06:19:28.960Z,98973.00
2022-12-01T06:22:16.535Z,98986.00
2022-12-01T06:25:04.878Z,98991.00
2022-12-01T06:27:59.419Z,98980.00
2022-12-01T06:30:46.874Z,98993.00
2022-12-01T06:33:34.439Z,98986.00
2022-12-01T06:36:22.039Z,98983.00
2022-12-01T06:39:10.847Z,98998.00
2022-12-01T06:41:58.334Z,98995.00
2022-12-01T06:44:46.362Z,98992.00
2022-12-01T06:47:34.024Z,98992.00
2022-12-01T06:50:22.159Z,99005.00
2022-12-01T06:53:10.240Z,98999.00
2022-12-01T06:56:06.078Z,99000.00
2022-12-01T06:58:53.929Z,99000.00
2022-12-01T07:01:42.050Z,99009.00
2022-12-01T07:04:31.185Z,99002.00
2022-12-01T07:07:18.706Z,99005.00
2022-12-01T07:10:08.269Z,99007.00
2022-12-01T07:12:59.004Z,99005.00
2022-12-01T07:15:46.438Z,99010.00
2022-12-01T07:18:35.287Z,99017.00
2022-12-01T07:21:23.944Z,99015.00
2022-12-01T07:24:12.694Z,99017.00
2022-12-01T07:27:00.129Z,99020.00
2022-12-01T07:29:47.964Z,99024.00
2022-12-01T07:32:35.797Z,99032.00
2022-12-01T07:35:23.529Z,99049.00
2022-12-01T07:38:10.970Z,99037.00
2022-12-01T07:41:09.661Z,99042.00
2022-12-01T07:43:57.129Z,99042.00
2022-12-01T07:46:44.741Z,99049.00
2022-12-01T07:49:32.246Z,99044.00
2022-12-01T07:52:19.750Z,99049.00
2022-12-01T07:55:07.874Z,99043.00
2022-12-01T07:57:55.295Z,99062.00
2022-12-01T08:00:42.938Z,99061.00
2022-12-01T08:03:30.324Z,99053.00
2022-12-01T08:06:19.354Z,99062.00
2022-12-01T08:09:06.859Z,99066.00
2022-12-01T08:11:54.335Z,99070.00
2022-12-01T08:14:41.799Z,99068.00
2022-12-01T08:17:29.230Z,99068.00
2022-12-01T08:20:22.284Z,99071.00
2022-12-01T08:23:11.659Z,99065.00
2022-12-01T08:26:14.041Z,99061.00
2022-12-01T08:29:01.564Z,99061.00
2022-12-01T08:31:49.083Z,99052.00
2022-12-01T08:34:41.814Z,99058.00
2022-12-01T08:37:29.250Z,99055.00
2022-12-01T08:40:16.794Z,99053.00
2022-12-01T08:43:06.010Z,99058.00
2022-12-01T08:45:53.500Z,99063.00
2022-12-01T08:48:42.005Z,99069.00
2022-12-01T08:51:30.236Z,99075.00
2022-12-01T08:54:17.674Z,99067.00
2022-12-01T08:57:05.082Z,99066.00
2022-12-01T08:59:52.593Z,99062.00
2022-12-01T09:02:40.053Z,99061.00
2022-12-01T09:05:28.225Z,99060.00
2022-12-01T09:08:35.095Z,99057.00
2022-12-01T09:11:22.559Z,99043.00
2022-12-01T09:14:11.489Z,99048.00
2022-12-01T09:16:58.990Z,99051.00
2022-12-01T09:19:46.670Z,99054.00
2022-12-01T09:22:34.947Z,99055.00
2022-12-01T09:25:22.465Z,99049.00
2022-12-01T09:28:10.005Z,99047.00
2022-12-01T09:31:03.119Z,99044.00
2022-12-01T09:34:04.288Z,99049.00
2022-12-01T09:36:56.694Z,99040.00
2022-12-01T09:39:44.205Z,99039.00
2022-12-01T09:42:35.383Z,99036.00
2022-12-01T09:45:36.670Z,99039.00
2022-12-01T09:48:43.513Z,99051.00
2022-12-01T09:51:36.317Z,99050.00
2022-12-01T09:54:23.819Z,99051.00
2022-12-01T09:57:33.688Z,99040.00
2022-12-01T10:00:30.102Z,99040.00
2022-12-01T10:03:35.319Z,99033.00
2022-12-01T10:06:41.393Z,99033.00
2022-12-01T10:09:56.601Z,99030.00
2022-12-01T10:12:47.743Z,99033.00
2022-12-01T10:15:57.552Z,99026.00
2022-12-01T10:19:03.551Z,99026.00
2022-12-01T10:22:14.550Z,99022.00
2022-12-01T10:25:23.399Z,99017.00
2022-12-01T10:28:47.069Z,99022.00
2022-12-01T10:31:58.535Z,99011.00
2022-12-01T10:34:48.210Z,99012.00
2022-12-01T10:37:35.751Z,99008.00
2022-12-01T10:40:24.240Z,99007.00
2022-12-01T10:43:11.764Z,98998.00
2022-12-01T10:46:13.400Z,99003.00
2022-12-01T10:49:13.704Z,98997.00
2022-12-01T10:52:01.122Z,98992.00
2022-12-01T10:54:48.543Z,98992.00
2022-12-01T10:57:37.720Z,98983.00
2022-12-01T11:03:41.139Z,98983.00
2022-12-01T11:06:31.313Z,98983.00
2022-12-01T11:09:26.610Z,98978.00
2022-12-01T11:12:20.590Z,98977.00
2022-12-01T11:15:18.224Z,98973.00
2022-12-01T11:18:20.623Z,98971.00
2022-12-01T11:21:14.985Z,98971.00
2022-12-01T11:24:36.841Z,98981.00
2022-12-01T11:27:50.514Z,98973.00
2022-12-01T11:30:38.157Z,98980.00
2022-12-01T11:33:28.021Z,98968.00
2022-12-01T11:36:48.792Z,98968.00
2022-12-01T11:39:41.554Z,98959.00
2022-12-01T11:42:34.440Z,98952.00
2022-12-01T11:45:25.349Z,98954.00
2022-12-01T11:48:12.842Z,98948.00
2022-12-01T11:51:15.400Z,98943.00
2022-12-01T11:54:19.712Z,98942.00
2022-12-01T11:57:33.193Z,98948.00
2022-12-01T12:00:29.239Z,98947.00
2022-12-01T12:03:29.265Z,98943.00
2022-12-01T12:06:39.980Z,98939.00
2022-12-01T12:10:19.106Z,98933.00
2022-12-01T12:13:30.376Z,98935.00
2022-12-01T12:16:53.971Z,98931.00
2022-12-01T12:20:13.768Z,98927.00
2022-12-01T12:23:27.539Z,98923.00
2022-12-01T12:26:28.279Z,98922.00
2022-12-01T12:29:41.086Z,98921.00
2022-12-01T12:33:13.900Z,98929.00
2022-12-01T12:36:25.914Z,98936.00
2022-12-01T12:39:55.529Z,98918.00
2022-12-01T12:43:23.491Z,98918.00
2022-12-01T12:46:15.293Z,98921.00
2022-12-01T12:49:40.156Z,98929.00
2022-12-01T12:52:41.264Z,98916.00
2022-12-01T12:55:47.121Z,98926.00
2022-12-01T12:59:00.657Z,98927.00
2022-12-01T13:02:18.790Z,98920.00
2022-12-01T13:05:31.166Z,98922.00
2022-12-01T13:08:32.231Z,98921.00
2022-12-01T13:11:47.788Z,98919.00
2022-12-01T13:14:47.304Z,98921.00
2022-12-01T13:17:43.582Z,98919.00
2022-12-01T13:20:35.544Z,98928.00
2022-12-01T13:23:24.639Z,98912.00
2022-12-01T13:26:13.260Z,98920.00
2022-12-01T13:29:04.849Z,98906.00
2022-12-01T13:31:55.132Z,98905.00
2022-12-01T13:34:47.570Z,98913.00
2022-12-01T13:37:38.860Z,98906.00
2022-12-01T13:40:31.560Z,98910.00
2022-12-01T13:43:23.131Z,98913.00
2022-12-01T13:46:43.715Z,98916.00
2022-12-01T13:49:45.605Z,98922.00
2022-12-01T13:52:33.772Z,98921.00
2022-12-01T13:55:29.565Z,98916.00
2022-12-01T13:58:17.193Z,98916.00
2022-12-01T14:01:20.286Z,98922.00
2022-12-01T14:04:16.925Z,98922.00
2022-12-01T14:07:36.638Z,98920.00
2022-12-01T14:10:33.932Z,98921.00
2022-12-01T14:13:24.638Z,98921.00
2022-12-01T14:16:12.358Z,98927.00
2022-12-01T14:19:00.109Z,98932.00
2022-12-01T14:21:49.832Z,98923.00
2022-12-01T14:24:43.600Z,98922.00
2022-12-01T14:27:43.780Z,98926.00
2022-12-01T14:30:50.434Z,98927.00
2022-12-01T14:34:08.777Z,98926.00
2022-12-01T14:37:16.008Z,98929.00
2022-12-01T14:40:16.510Z,98930.00
2022-12-01T14:43:23.613Z,98927.00
2022-12-01T14:46:16.702Z,98930.00
2022-12-01T14:49:05.815Z,98929.00
2022-12-01T14:52:07.167Z,98933.00
2022-12-01T14:55:01.935Z,98938.00
2022-12-01T14:58:22.299Z,98935.00
2022-12-01T15:01:14.014Z,98929.00
2022-12-01T15:04:06.616Z,98939.00
2022-12-01T15:06:57.534Z,98935.00
2022-12-01T15:10:02.273Z,98946.00
2022-12-01T15:12:51.970Z,98937.00
2022-12-01T15:15:56.675Z,98938.00
2022-12-01T15:18:45.218Z,98940.00
2022-12-01T15:21:32.895Z,98941.00
2022-12-01T15:24:27.363Z,98941.00
2022-12-01T15:27:32.424Z,98939.00
2022-12-01T15:30:20.054Z,98951.00
2022-12-01T15:33:25.532Z,98955.00
2022-12-01T15:36:15.264Z,98958.00
2022-12-01T15:39:06.985Z,98962.00
2022-12-01T15:41:55.835Z,98954.00
2022-12-01T15:44:43.336Z,98954.00
2022-12-01T15:47:44.376Z,98956.00
2022-12-01T15:50:46.274Z,98961.00
2022-12-01T15:53:38.335Z,98957.00
2022-12-01T15:56:36.444Z,98957.00
2022-12-01T15:59:39.902Z,98957.00
2022-12-01T16:02:32.708Z,98955.00
2022-12-01T16:05:30.293Z,98954.00
2022-12-01T16:08:21.980Z,98958.00
2022-12-01T16:11:16.561Z,98955.00
2022-12-01T16:14:25.784Z,98959.00
2022-12-01T16:17:14.109Z,98956.00
2022-12-01T16:20:33.059Z,98949.00
2022-12-01T16:23:26.401Z,98945.00
2022-12-01T16:26:14.207Z,98960.00
2022-12-01T16:29:01.762Z,98970.00
2022-12-01T16:32:19.944Z,98962.00
2022-12-01T16:34:59.361Z,98963.00
2022-12-01T16:37:47.188Z,98974.00
2022-12-01T16:40:34.790Z,98972.00
2022-12-01T16:43:25.545Z,98975.00
2022-12-01T16:46:14.194Z,98976.00
2022-12-01T16:49:01.765Z,98980.00
2022-12-01T16:51:56.131Z,98972.00
2022-12-01T16:54:44.779Z,98982.00
2022-12-01T16:57:32.186Z,98976.00
2022-12-01T17:00:20.167Z,98976.00
2022-12-01T17:03:10.865Z,98985.00
2022-12-01T17:06:01.929Z,98976.00
2022-12-01T17:08:49.541Z,98982.00
2022-12-01T17:11:37.011Z,98977.00
2022-12-01T17:14:25.035Z,98983.00
2022-12-01T17:17:12.536Z,98978.00
2022-12-01T17:19:59.999Z,98979.00
2022-12-01T17:22:47.441Z,98982.00
2022-12-01T17:25:35.640Z,98980.00
2022-12-01T17:28:23.113Z,98981.00
2022-12-01T17:31:11.640Z,98982.00
2022-12-01T17:33:59.124Z,98983.00
2022-12-01T17:36:46.499Z,98973.00
2022-12-01T17:39:33.944Z,98979.00
2022-12-01T17:42:21.746Z,98986.00
2022-12-01T17:45:11.214Z,98983.00
2022-12-01T17:47:58.643Z,98989.00
2022-12-01T17:50:46.045Z,98984.00
2022-12-01T17:53:34.000Z,98978.00
2022-12-01T17:56:21.473Z,98981.00
2022-12-01T17:59:09.145Z,98979.00
2022-12-01T18:01:56.699Z,98981.00
2022-12-01T18:04:44.259Z,98993.00
2022-12-01T18:07:31.889Z,98980.00
2022-12-01T18:10:19.334Z,98979.00
2022-12-01T18:13:06.808Z,98979.00
2022-12-01T18:15:54.483Z,98987.00
2022-12-01T18:18:42.192Z,98967.00
2022-12-01T18:21:30.208Z,98968.00
2022-12-01T18:24:18.199Z,98970.00
2022-12-01T18:27:05.595Z,98981.00
2022-12-01T18:29:53.062Z,98983.00
2022-12-01T18:32:40.549Z,98988.00
2022-12-01T18:35:31.759Z,98993.00
2022-12-01T18:38:19.596Z,98987.00
2022-12-01T18:41:07.639Z,98986.00
2022-12-01T18:43:55.346Z,98983.00
2022-12-01T18:46:42.939Z,98984.00
2022-12-01T18:49:30.509Z,98984.00
2022-12-01T18:52:17.930Z,98986.00
2022-12-01T18:55:05.838Z,98994.00
2022-12-01T18:57:53.304Z,98991.00
2022-12-01T19:00:40.732Z,98992.00
2022-12-01T19:03:32.715Z,98990.00
2022-12-01T19:06:20.199Z,98986.00
2022-12-01T19:09:10.478Z,98985.00
2022-12-01T19:12:00.076Z,98983.00
2022-12-01T19:14:47.644Z,98979.00
2022-12-01T19:17:35.170Z,98973.00
2022-12-01T19:20:22.587Z,98972.00
2022-12-01T19:23:10.164Z,98985.00
2022-12-01T19:25:57.715Z,98977.00
2022-12-01T19:28:46.494Z,98976.00
2022-12-01T19:31:34.083Z,98977.00
2022-12-01T19:34:21.686Z,98970.00
2022-12-01T19:37:09.214Z,98966.00
2022-12-01T19:39:56.664Z,98967.00
2022-12-01T19:42:44.830Z,98960.00
2022-12-01T19:45:33.557Z,98966.00
2022-12-01T19:48:21.104Z,98966.00
2022-12-01T19:51:18.029Z,98966.00
2022-12-01T19:54:12.966Z,98970.00
2022-12-01T19:57:00.506Z,98972.00
2022-12-01T19:59:48.215Z,98967.00
2022-12-01T20:02:35.656Z,98960.00
2022-12-01T20:05:23.415Z,98965.00
2022-12-01T20:08:13.944Z,98964.00
2022-12-01T20:11:03.625Z,98959.00
2022-12-01T20:13:52.145Z,98961.00
2022-12-01T20:16:40.214Z,98965.00
2022-12-01T20:19:27.667Z,98962.00
2022-12-01T20:22:15.120Z,98964.00
2022-12-01T20:25:04.462Z,98969.00
2022-12-01T20:27:51.874Z,98966.00
2022-12-01T20:30:42.400Z,98960.00
2022-12-01T20:33:30.076Z,98959.00
2022-12-01T20:36:18.435Z,98964.00
2022-12-01T20:39:08.109Z,98966.00
2022-12-01T20:41:55.535Z,98956.00
2022-12-01T20:44:43.059Z,98965.00
2022-12-01T20:47:31.660Z,98973.00
2022-12-01T20:50:19.420Z,98968.00
2022-12-01T20:53:08.077Z,98968.00
2022-12-01T20:55:56.328Z,98967.00
2022-12-01T20:58:43.740Z,98968.00
2022-12-01T21:01:31.184Z,98963.00
2022-12-01T21:04:18.806Z,98969.00
2022-12-01T21:07:06.250Z,98977.00
2022-12-01T21:09:53.705Z,98965.00
2022-12-01T21:13:05.462Z,98968.00
2022-12-01T21:16:01.665Z,98968.00
2022-12-01T21:19:00.357Z,98962.00
2022-12-01T21:21:47.782Z,98976.00
2022-12-01T21:24:42.030Z,98968.00
2022-12-01T21:27:31.202Z,98968.00
2022-12-01T21:30:29.857Z,98962.00
2022-12-01T21:33:35.041Z,98963.00
2022-12-01T21:36:28.686Z,98968.00
2022-12-01T21:39:23.406Z,98967.00
2022-12-01T21:42:40.210Z,98967.00
2022-12-01T21:45:32.092Z,98963.00
2022-12-01T21:48:25.729Z,98966.00
2022-12-01T21:51:23.047Z,98965.00
2022-12-01T21:54:19.505Z,98968.00
2022-12-01T21:57:44.895Z,98974.00
2022-12-01T22:00:37.086Z,98972.00
2022-12-01T22:03:34.157Z,98976.00
2022-12-01T22:06:43.308Z,98975.00
2022-12-01T22:09:36.441Z,98973.00
2022-12-01T22:12:29.279Z,98970.00
2022-12-01T22:15:42.309Z,98972.00
2022-12-01T22:18:42.305Z,98968.00
2022-12-01T22:21:43.678Z,98970.00
2022-12-01T22:24:51.012Z,98969.00
2022-12-01T22:27:44.037Z,98976.00
2022-12-01T22:30:31.756Z,98977.00
2022-12-01T22:33:24.420Z,98972.00
2022-12-01T22:36:28.721Z,98974.00
2022-12-01T22:39:31.040Z,98964.00
2022-12-01T22:42:34.549Z,98965.00
2022-12-01T22:45:27.000Z,98973.00
2022-12-01T22:48:44.470Z,98969.00
2022-12-01T22:51:38.262Z,98968.00
2022-12-01T22:54:39.562Z,98965.00
2022-12-01T22:57:33.474Z,98964.00
2022-12-01T23:00:25.100Z,98966.00
2022-12-01T23:03:12.887Z,98965.00
2022-12-01T23:06:00.405Z,98963.00
2022-12-01T23:08:47.850Z,98967.00
2022-12-01T23:11:35.742Z,98961.00
2022-12-01T23:14:24.450Z,98960.00
2022-12-01T23:17:30.170Z,98957.00
2022-12-01T23:20:20.622Z,98957.00
2022-12-01T23:23:20.904Z,98949.00
2022-12-01T23:26:09.425Z,98950.00
2022-12-01T23:29:00.391Z,98952.00
2022-12-01T23:31:50.890Z,98949.00
2022-12-01T23:34:38.858Z,98954.00
2022-12-01T23:37:39.269Z,98951.00
2022-12-01T23:40:36.881Z,98950.00
2022-12-01T23:43:48.519Z,98955.00
2022-12-01T23:46:37.013Z,98949.00
2022-12-01T23:49:33.219Z,98950.00
2022-12-01T23:52:21.435Z,98947.00
2022-12-01T23:55:29.282Z,98943.00
2022-12-01T23:58:16.870Z,98944.00
